sensor_id;sensor_type;location;lat;lon;timestamp;P1;durP1;ratioP1;P2;durP2;ratioP2
9860;SDS011;4969;52.304;4.968;2022-08-05T00:00:15;5.28;;;2.17;;
9860;SDS011;4969;52.304;4.968;2022-08-05T00:02:44;4.50;;;2.72;;
9860;SDS011;4969;52.304;4.968;2022-08-05T00:05:11;8.80;;;3.00;;
9860;SDS011;4969;52.304;4.968;2022-08-05T00:07:38;5.95;;;3.58;;
9860;SDS011;4969;52.304;4.968;2022-08-05T00:10:04;6.18;;;3.08;;
9860;SDS011;4969;52.304;4.968;2022-08-05T00:12:31;4.75;;;3.00;;
9860;SDS011;4969;52.304;4.968;2022-08-05T00:14:58;4.20;;;2.95;;
9860;SDS011;4969;52.304;4.968;2022-08-05T00:17:24;4.40;;;2.78;;
9860;SDS011;4969;52.304;4.968;2022-08-05T00:19:52;4.85;;;3.70;;
9860;SDS011;4969;52.304;4.968;2022-08-05T00:22:19;4.90;;;3.03;;
9860;SDS011;4969;52.304;4.968;2022-08-05T00:24:45;6.40;;;4.25;;
9860;SDS011;4969;52.304;4.968;2022-08-05T00:27:12;4.60;;;2.50;;
9860;SDS011;4969;52.304;4.968;2022-08-05T00:29:38;4.07;;;2.78;;
9860;SDS011;4969;52.304;4.968;2022-08-05T00:32:05;4.60;;;3.65;;
9860;SDS011;4969;52.304;4.968;2022-08-05T00:34:33;3.58;;;2.60;;
9860;SDS011;4969;52.304;4.968;2022-08-05T00:37:00;5.90;;;3.00;;
9860;SDS011;4969;52.304;4.968;2022-08-05T00:39:27;4.32;;;2.83;;
9860;SDS011;4969;52.304;4.968;2022-08-05T00:41:53;5.25;;;2.80;;
9860;SDS011;4969;52.304;4.968;2022-08-05T00:44:20;4.88;;;2.70;;
9860;SDS011;4969;52.304;4.968;2022-08-05T00:46:47;4.82;;;4.10;;
9860;SDS011;4969;52.304;4.968;2022-08-05T00:49:13;5.35;;;2.45;;
9860;SDS011;4969;52.304;4.968;2022-08-05T00:51:43;4.38;;;3.55;;
9860;SDS011;4969;52.304;4.968;2022-08-05T00:54:11;4.43;;;2.70;;
9860;SDS011;4969;52.304;4.968;2022-08-05T00:56:38;5.15;;;3.03;;
9860;SDS011;4969;52.304;4.968;2022-08-05T00:59:05;5.45;;;3.15;;
9860;SDS011;4969;52.304;4.968;2022-08-05T01:01:31;6.35;;;2.95;;
9860;SDS011;4969;52.304;4.968;2022-08-05T01:03:58;4.85;;;2.88;;
9860;SDS011;4969;52.304;4.968;2022-08-05T01:06:24;4.32;;;2.40;;
9860;SDS011;4969;52.304;4.968;2022-08-05T01:08:51;4.10;;;2.35;;
9860;SDS011;4969;52.304;4.968;2022-08-05T01:11:20;4.75;;;2.95;;
9860;SDS011;4969;52.304;4.968;2022-08-05T01:13:51;4.35;;;2.50;;
9860;SDS011;4969;52.304;4.968;2022-08-05T01:16:26;4.90;;;2.90;;
9860;SDS011;4969;52.304;4.968;2022-08-05T01:18:59;5.85;;;2.72;;
9860;SDS011;4969;52.304;4.968;2022-08-05T01:24:32;6.70;;;3.33;;
9860;SDS011;4969;52.304;4.968;2022-08-05T01:27:12;3.22;;;2.75;;
9860;SDS011;4969;52.304;4.968;2022-08-05T01:29:53;3.88;;;2.70;;
9860;SDS011;4969;52.304;4.968;2022-08-05T01:32:22;4.60;;;3.00;;
9860;SDS011;4969;52.304;4.968;2022-08-05T01:34:53;4.07;;;2.92;;
9860;SDS011;4969;52.304;4.968;2022-08-05T01:37:24;4.50;;;2.72;;
9860;SDS011;4969;52.304;4.968;2022-08-05T01:39:57;2.97;;;2.58;;
9860;SDS011;4969;52.304;4.968;2022-08-05T01:42:26;5.28;;;2.35;;
9860;SDS011;4969;52.304;4.968;2022-08-05T01:44:56;2.72;;;2.35;;
9860;SDS011;4969;52.304;4.968;2022-08-05T01:47:25;4.82;;;2.97;;
9860;SDS011;4969;52.304;4.968;2022-08-05T01:49:55;5.88;;;2.53;;
9860;SDS011;4969;52.304;4.968;2022-08-05T01:52:22;5.65;;;2.33;;
9860;SDS011;4969;52.304;4.968;2022-08-05T01:55:01;3.75;;;2.10;;
9860;SDS011;4969;52.304;4.968;2022-08-05T01:57:31;3.70;;;2.20;;
9860;SDS011;4969;52.304;4.968;2022-08-05T02:00:02;3.20;;;2.50;;
9860;SDS011;4969;52.304;4.968;2022-08-05T02:02:31;4.45;;;2.78;;
9860;SDS011;4969;52.304;4.968;2022-08-05T02:05:02;5.28;;;3.08;;
9860;SDS011;4969;52.304;4.968;2022-08-05T02:07:32;5.10;;;3.25;;
9860;SDS011;4969;52.304;4.968;2022-08-05T02:10:01;6.40;;;3.20;;
9860;SDS011;4969;52.304;4.968;2022-08-05T02:12:32;5.68;;;2.70;;
9860;SDS011;4969;52.304;4.968;2022-08-05T02:15:05;4.32;;;2.40;;
9860;SDS011;4969;52.304;4.968;2022-08-05T02:17:35;3.60;;;2.70;;
9860;SDS011;4969;52.304;4.968;2022-08-05T02:20:06;3.55;;;2.30;;
9860;SDS011;4969;52.304;4.968;2022-08-05T02:22:41;7.03;;;3.03;;
9860;SDS011;4969;52.304;4.968;2022-08-05T02:25:11;3.95;;;2.50;;
9860;SDS011;4969;52.304;4.968;2022-08-05T02:27:42;3.13;;;2.80;;
9860;SDS011;4969;52.304;4.968;2022-08-05T02:30:14;4.78;;;2.30;;
9860;SDS011;4969;52.304;4.968;2022-08-05T02:32:41;3.30;;;2.38;;
9860;SDS011;4969;52.304;4.968;2022-08-05T02:35:13;5.35;;;3.00;;
9860;SDS011;4969;52.304;4.968;2022-08-05T02:37:43;4.80;;;2.00;;
9860;SDS011;4969;52.304;4.968;2022-08-05T02:40:11;3.58;;;2.03;;
9860;SDS011;4969;52.304;4.968;2022-08-05T02:42:39;4.38;;;2.55;;
9860;SDS011;4969;52.304;4.968;2022-08-05T02:45:06;4.70;;;2.47;;
9860;SDS011;4969;52.304;4.968;2022-08-05T02:47:36;5.68;;;3.05;;
9860;SDS011;4969;52.304;4.968;2022-08-05T02:50:04;2.92;;;2.22;;
9860;SDS011;4969;52.304;4.968;2022-08-05T02:52:32;3.70;;;2.20;;
9860;SDS011;4969;52.304;4.968;2022-08-05T02:55:01;4.78;;;2.42;;
9860;SDS011;4969;52.304;4.968;2022-08-05T02:57:28;4.60;;;2.30;;
9860;SDS011;4969;52.304;4.968;2022-08-05T02:59:55;4.43;;;2.30;;
9860;SDS011;4969;52.304;4.968;2022-08-05T03:02:23;4.35;;;2.58;;
9860;SDS011;4969;52.304;4.968;2022-08-05T03:04:55;4.35;;;2.20;;
9860;SDS011;4969;52.304;4.968;2022-08-05T03:07:23;3.60;;;2.88;;
9860;SDS011;4969;52.304;4.968;2022-08-05T03:09:50;3.95;;;2.20;;
9860;SDS011;4969;52.304;4.968;2022-08-05T03:12:29;3.65;;;2.50;;
9860;SDS011;4969;52.304;4.968;2022-08-05T03:14:56;4.53;;;2.83;;
9860;SDS011;4969;52.304;4.968;2022-08-05T03:17:23;4.35;;;2.35;;
9860;SDS011;4969;52.304;4.968;2022-08-05T03:19:49;3.90;;;2.75;;
9860;SDS011;4969;52.304;4.968;2022-08-05T03:22:17;3.25;;;2.70;;
9860;SDS011;4969;52.304;4.968;2022-08-05T03:24:44;4.38;;;2.20;;
9860;SDS011;4969;52.304;4.968;2022-08-05T03:27:12;5.47;;;2.38;;
9860;SDS011;4969;52.304;4.968;2022-08-05T03:29:39;3.33;;;2.40;;
9860;SDS011;4969;52.304;4.968;2022-08-05T03:32:06;3.80;;;2.28;;
9860;SDS011;4969;52.304;4.968;2022-08-05T03:34:33;3.38;;;1.73;;
9860;SDS011;4969;52.304;4.968;2022-08-05T03:37:00;4.30;;;2.22;;
9860;SDS011;4969;52.304;4.968;2022-08-05T03:39:29;3.38;;;2.33;;
9860;SDS011;4969;52.304;4.968;2022-08-05T03:41:56;2.85;;;2.58;;
9860;SDS011;4969;52.304;4.968;2022-08-05T03:44:23;4.28;;;2.47;;
9860;SDS011;4969;52.304;4.968;2022-08-05T03:46:50;3.22;;;2.50;;
9860;SDS011;4969;52.304;4.968;2022-08-05T03:49:17;6.25;;;2.10;;
9860;SDS011;4969;52.304;4.968;2022-08-05T03:51:44;2.72;;;2.40;;
9860;SDS011;4969;52.304;4.968;2022-08-05T03:54:20;4.97;;;2.45;;
9860;SDS011;4969;52.304;4.968;2022-08-05T03:57:00;4.30;;;2.17;;
9860;SDS011;4969;52.304;4.968;2022-08-05T03:59:30;4.15;;;2.60;;
9860;SDS011;4969;52.304;4.968;2022-08-05T04:02:02;4.07;;;2.40;;
9860;SDS011;4969;52.304;4.968;2022-08-05T04:04:30;3.30;;;2.38;;
9860;SDS011;4969;52.304;4.968;2022-08-05T04:06:58;3.40;;;2.10;;
9860;SDS011;4969;52.304;4.968;2022-08-05T04:09:26;3.33;;;1.85;;
9860;SDS011;4969;52.304;4.968;2022-08-05T04:11:53;3.47;;;2.08;;
9860;SDS011;4969;52.304;4.968;2022-08-05T04:14:21;3.30;;;2.05;;
9860;SDS011;4969;52.304;4.968;2022-08-05T04:16:49;3.80;;;1.70;;
9860;SDS011;4969;52.304;4.968;2022-08-05T04:19:17;2.72;;;1.75;;
9860;SDS011;4969;52.304;4.968;2022-08-05T04:21:43;3.17;;;1.83;;
9860;SDS011;4969;52.304;4.968;2022-08-05T04:24:10;2.67;;;1.92;;
9860;SDS011;4969;52.304;4.968;2022-08-05T04:26:37;3.67;;;1.80;;
9860;SDS011;4969;52.304;4.968;2022-08-05T04:29:03;3.00;;;1.80;;
9860;SDS011;4969;52.304;4.968;2022-08-05T04:31:31;2.90;;;2.00;;
9860;SDS011;4969;52.304;4.968;2022-08-05T04:33:58;4.93;;;2.22;;
9860;SDS011;4969;52.304;4.968;2022-08-05T04:36:24;2.53;;;2.05;;
9860;SDS011;4969;52.304;4.968;2022-08-05T04:38:51;2.95;;;2.05;;
9860;SDS011;4969;52.304;4.968;2022-08-05T04:41:19;2.60;;;2.17;;
9860;SDS011;4969;52.304;4.968;2022-08-05T04:43:45;2.13;;;1.70;;
9860;SDS011;4969;52.304;4.968;2022-08-05T04:46:12;2.78;;;2.20;;
9860;SDS011;4969;52.304;4.968;2022-08-05T04:48:39;2.28;;;1.75;;
9860;SDS011;4969;52.304;4.968;2022-08-05T04:51:06;2.30;;;1.63;;
9860;SDS011;4969;52.304;4.968;2022-08-05T04:53:34;1.92;;;1.67;;
9860;SDS011;4969;52.304;4.968;2022-08-05T04:56:00;2.42;;;1.90;;
9860;SDS011;4969;52.304;4.968;2022-08-05T04:58:27;5.05;;;2.22;;
9860;SDS011;4969;52.304;4.968;2022-08-05T05:00:54;4.40;;;1.95;;
9860;SDS011;4969;52.304;4.968;2022-08-05T05:03:20;1.95;;;1.52;;
9860;SDS011;4969;52.304;4.968;2022-08-05T05:05:48;2.78;;;1.92;;
9860;SDS011;4969;52.304;4.968;2022-08-05T05:08:14;2.90;;;2.08;;
9860;SDS011;4969;52.304;4.968;2022-08-05T05:10:41;4.15;;;1.98;;
9860;SDS011;4969;52.304;4.968;2022-08-05T05:13:09;3.80;;;2.13;;
9860;SDS011;4969;52.304;4.968;2022-08-05T05:15:36;3.45;;;1.92;;
9860;SDS011;4969;52.304;4.968;2022-08-05T05:18:04;3.83;;;1.75;;
9860;SDS011;4969;52.304;4.968;2022-08-05T05:20:31;3.35;;;2.30;;
9860;SDS011;4969;52.304;4.968;2022-08-05T05:23:00;2.47;;;1.80;;
9860;SDS011;4969;52.304;4.968;2022-08-05T05:25:29;5.63;;;2.42;;
9860;SDS011;4969;52.304;4.968;2022-08-05T05:27:56;2.63;;;2.10;;
9860;SDS011;4969;52.304;4.968;2022-08-05T05:30:22;3.08;;;2.40;;
9860;SDS011;4969;52.304;4.968;2022-08-05T05:32:49;2.85;;;2.08;;
9860;SDS011;4969;52.304;4.968;2022-08-05T05:35:15;3.45;;;2.47;;
9860;SDS011;4969;52.304;4.968;2022-08-05T05:37:45;4.13;;;2.05;;
9860;SDS011;4969;52.304;4.968;2022-08-05T05:40:15;3.92;;;2.22;;
9860;SDS011;4969;52.304;4.968;2022-08-05T05:42:42;3.35;;;2.00;;
9860;SDS011;4969;52.304;4.968;2022-08-05T05:45:09;3.05;;;2.33;;
9860;SDS011;4969;52.304;4.968;2022-08-05T05:47:35;2.10;;;1.90;;
9860;SDS011;4969;52.304;4.968;2022-08-05T05:50:02;5.32;;;2.17;;
9860;SDS011;4969;52.304;4.968;2022-08-05T05:52:30;2.83;;;1.80;;
9860;SDS011;4969;52.304;4.968;2022-08-05T05:54:57;3.75;;;1.77;;
9860;SDS011;4969;52.304;4.968;2022-08-05T05:57:25;3.50;;;1.70;;
9860;SDS011;4969;52.304;4.968;2022-08-05T05:59:52;3.70;;;2.00;;
9860;SDS011;4969;52.304;4.968;2022-08-05T06:02:18;2.65;;;1.60;;
9860;SDS011;4969;52.304;4.968;2022-08-05T06:04:45;3.15;;;1.50;;
9860;SDS011;4969;52.304;4.968;2022-08-05T06:07:11;3.08;;;1.23;;
9860;SDS011;4969;52.304;4.968;2022-08-05T06:09:38;2.13;;;1.40;;
9860;SDS011;4969;52.304;4.968;2022-08-05T06:12:05;3.03;;;1.52;;
9860;SDS011;4969;52.304;4.968;2022-08-05T06:14:34;6.03;;;1.80;;
9860;SDS011;4969;52.304;4.968;2022-08-05T06:17:00;1.55;;;1.00;;
9860;SDS011;4969;52.304;4.968;2022-08-05T06:19:28;1.92;;;1.48;;
9860;SDS011;4969;52.304;4.968;2022-08-05T06:21:54;3.20;;;1.40;;
9860;SDS011;4969;52.304;4.968;2022-08-05T06:24:21;1.40;;;1.30;;
9860;SDS011;4969;52.304;4.968;2022-08-05T06:26:48;1.35;;;1.20;;
9860;SDS011;4969;52.304;4.968;2022-08-05T06:29:14;2.95;;;1.63;;
9860;SDS011;4969;52.304;4.968;2022-08-05T06:31:42;3.22;;;1.55;;
9860;SDS011;4969;52.304;4.968;2022-08-05T06:34:08;2.25;;;1.50;;
9860;SDS011;4969;52.304;4.968;2022-08-05T06:36:35;4.13;;;1.90;;
9860;SDS011;4969;52.304;4.968;2022-08-05T06:39:01;4.43;;;1.58;;
9860;SDS011;4969;52.304;4.968;2022-08-05T06:41:28;3.90;;;1.50;;
9860;SDS011;4969;52.304;4.968;2022-08-05T06:43:55;2.33;;;1.45;;
9860;SDS011;4969;52.304;4.968;2022-08-05T06:46:21;2.58;;;1.70;;
9860;SDS011;4969;52.304;4.968;2022-08-05T06:48:49;1.45;;;1.30;;
9860;SDS011;4969;52.304;4.968;2022-08-05T06:51:16;1.58;;;1.33;;
9860;SDS011;4969;52.304;4.968;2022-08-05T06:53:43;2.67;;;1.75;;
9860;SDS011;4969;52.304;4.968;2022-08-05T06:56:09;3.78;;;1.10;;
9860;SDS011;4969;52.304;4.968;2022-08-05T06:58:36;1.95;;;1.30;;
9860;SDS011;4969;52.304;4.968;2022-08-05T07:01:02;3.25;;;1.50;;
9860;SDS011;4969;52.304;4.968;2022-08-05T07:03:30;1.83;;;1.60;;
9860;SDS011;4969;52.304;4.968;2022-08-05T07:05:59;1.95;;;1.05;;
9860;SDS011;4969;52.304;4.968;2022-08-05T07:08:27;1.40;;;1.05;;
9860;SDS011;4969;52.304;4.968;2022-08-05T07:10:54;2.97;;;1.10;;
9860;SDS011;4969;52.304;4.968;2022-08-05T07:13:21;1.63;;;1.20;;
9860;SDS011;4969;52.304;4.968;2022-08-05T07:16:05;1.67;;;1.13;;
9860;SDS011;4969;52.304;4.968;2022-08-05T07:18:49;1.17;;;0.80;;
9860;SDS011;4969;52.304;4.968;2022-08-05T07:21:17;2.47;;;1.00;;
9860;SDS011;4969;52.304;4.968;2022-08-05T07:23:44;3.17;;;1.20;;
9860;SDS011;4969;52.304;4.968;2022-08-05T07:26:10;4.65;;;1.38;;
9860;SDS011;4969;52.304;4.968;2022-08-05T07:28:37;1.65;;;1.00;;
9860;SDS011;4969;52.304;4.968;2022-08-05T07:31:05;4.15;;;1.30;;
9860;SDS011;4969;52.304;4.968;2022-08-05T07:33:31;3.10;;;1.48;;
9860;SDS011;4969;52.304;4.968;2022-08-05T07:35:58;2.28;;;1.38;;
9860;SDS011;4969;52.304;4.968;2022-08-05T07:38:26;3.33;;;1.10;;
9860;SDS011;4969;52.304;4.968;2022-08-05T07:40:53;2.35;;;1.20;;
9860;SDS011;4969;52.304;4.968;2022-08-05T07:43:19;3.70;;;1.55;;
9860;SDS011;4969;52.304;4.968;2022-08-05T07:45:46;5.32;;;3.47;;
9860;SDS011;4969;52.304;4.968;2022-08-05T07:48:12;40.63;;;34.50;;
9860;SDS011;4969;52.304;4.968;2022-08-05T07:50:39;47.08;;;39.17;;
9860;SDS011;4969;52.304;4.968;2022-08-05T07:53:05;2.72;;;2.50;;
9860;SDS011;4969;52.304;4.968;2022-08-05T07:55:34;14.10;;;9.60;;
9860;SDS011;4969;52.304;4.968;2022-08-05T07:58:00;10.43;;;5.20;;
9860;SDS011;4969;52.304;4.968;2022-08-05T08:00:27;11.57;;;9.82;;
9860;SDS011;4969;52.304;4.968;2022-08-05T08:02:54;7.72;;;5.50;;
9860;SDS011;4969;52.304;4.968;2022-08-05T08:05:20;24.15;;;19.77;;
9860;SDS011;4969;52.304;4.968;2022-08-05T08:07:47;27.65;;;20.15;;
9860;SDS011;4969;52.304;4.968;2022-08-05T08:10:13;14.13;;;11.02;;
9860;SDS011;4969;52.304;4.968;2022-08-05T08:12:41;22.35;;;17.75;;
9860;SDS011;4969;52.304;4.968;2022-08-05T08:15:08;15.07;;;11.02;;
9860;SDS011;4969;52.304;4.968;2022-08-05T08:17:35;17.98;;;13.57;;
9860;SDS011;4969;52.304;4.968;2022-08-05T08:20:02;3.92;;;1.70;;
9860;SDS011;4969;52.304;4.968;2022-08-05T08:22:30;12.88;;;11.50;;
9860;SDS011;4969;52.304;4.968;2022-08-05T08:24:57;2.83;;;1.60;;
9860;SDS011;4969;52.304;4.968;2022-08-05T08:27:24;1.33;;;1.13;;
9860;SDS011;4969;52.304;4.968;2022-08-05T08:29:51;1.50;;;1.10;;
9860;SDS011;4969;52.304;4.968;2022-08-05T08:32:18;2.78;;;1.13;;
9860;SDS011;4969;52.304;4.968;2022-08-05T08:34:44;5.82;;;2.97;;
9860;SDS011;4969;52.304;4.968;2022-08-05T08:37:11;12.50;;;7.10;;
9860;SDS011;4969;52.304;4.968;2022-08-05T08:39:37;2.88;;;2.63;;
9860;SDS011;4969;52.304;4.968;2022-08-05T08:42:04;0.75;;;0.75;;
9860;SDS011;4969;52.304;4.968;2022-08-05T08:44:33;2.45;;;1.30;;
9860;SDS011;4969;52.304;4.968;2022-08-05T08:47:02;1.90;;;1.25;;
9860;SDS011;4969;52.304;4.968;2022-08-05T08:49:29;1.52;;;0.70;;
9860;SDS011;4969;52.304;4.968;2022-08-05T08:52:00;2.00;;;1.35;;
9860;SDS011;4969;52.304;4.968;2022-08-05T08:54:31;1.95;;;1.40;;
9860;SDS011;4969;52.304;4.968;2022-08-05T08:56:57;1.45;;;1.05;;
9860;SDS011;4969;52.304;4.968;2022-08-05T08:59:24;1.80;;;1.00;;
9860;SDS011;4969;52.304;4.968;2022-08-05T09:01:51;2.00;;;0.70;;
9860;SDS011;4969;52.304;4.968;2022-08-05T09:04:19;3.15;;;2.85;;
9860;SDS011;4969;52.304;4.968;2022-08-05T09:06:46;1.50;;;0.88;;
9860;SDS011;4969;52.304;4.968;2022-08-05T09:09:13;3.25;;;2.17;;
9860;SDS011;4969;52.304;4.968;2022-08-05T09:11:40;0.77;;;0.70;;
9860;SDS011;4969;52.304;4.968;2022-08-05T09:14:07;3.60;;;1.02;;
9860;SDS011;4969;52.304;4.968;2022-08-05T09:16:33;1.02;;;0.82;;
9860;SDS011;4969;52.304;4.968;2022-08-05T09:19:00;2.60;;;0.95;;
9860;SDS011;4969;52.304;4.968;2022-08-05T09:21:28;0.50;;;0.50;;
9860;SDS011;4969;52.304;4.968;2022-08-05T09:24:01;2.20;;;2.00;;
9860;SDS011;4969;52.304;4.968;2022-08-05T09:26:29;6.43;;;5.82;;
9860;SDS011;4969;52.304;4.968;2022-08-05T09:28:58;1.40;;;1.23;;
9860;SDS011;4969;52.304;4.968;2022-08-05T09:31:25;1.50;;;1.40;;
9860;SDS011;4969;52.304;4.968;2022-08-05T09:33:53;0.95;;;0.63;;
9860;SDS011;4969;52.304;4.968;2022-08-05T09:36:22;1.77;;;1.05;;
9860;SDS011;4969;52.304;4.968;2022-08-05T09:38:57;1.75;;;1.52;;
9860;SDS011;4969;52.304;4.968;2022-08-05T09:41:26;1.27;;;0.80;;
9860;SDS011;4969;52.304;4.968;2022-08-05T09:43:52;2.17;;;1.52;;
9860;SDS011;4969;52.304;4.968;2022-08-05T09:46:23;1.58;;;0.82;;
9860;SDS011;4969;52.304;4.968;2022-08-05T09:48:51;1.17;;;0.90;;
9860;SDS011;4969;52.304;4.968;2022-08-05T09:51:29;1.40;;;1.30;;
9860;SDS011;4969;52.304;4.968;2022-08-05T09:53:58;2.08;;;0.60;;
9860;SDS011;4969;52.304;4.968;2022-08-05T09:56:25;0.95;;;0.82;;
9860;SDS011;4969;52.304;4.968;2022-08-05T09:58:57;0.70;;;0.70;;
9860;SDS011;4969;52.304;4.968;2022-08-05T10:01:25;3.55;;;1.10;;
9860;SDS011;4969;52.304;4.968;2022-08-05T10:03:55;3.28;;;1.15;;
9860;SDS011;4969;52.304;4.968;2022-08-05T10:06:24;2.47;;;0.70;;
9860;SDS011;4969;52.304;4.968;2022-08-05T10:08:52;1.67;;;0.90;;
9860;SDS011;4969;52.304;4.968;2022-08-05T10:11:19;2.33;;;0.73;;
9860;SDS011;4969;52.304;4.968;2022-08-05T10:13:46;2.08;;;0.73;;
9860;SDS011;4969;52.304;4.968;2022-08-05T10:16:30;1.38;;;1.00;;
9860;SDS011;4969;52.304;4.968;2022-08-05T10:18:58;0.73;;;0.70;;
9860;SDS011;4969;52.304;4.968;2022-08-05T10:21:25;4.47;;;4.07;;
9860;SDS011;4969;52.304;4.968;2022-08-05T10:23:52;15.07;;;12.10;;
9860;SDS011;4969;52.304;4.968;2022-08-05T10:26:20;8.60;;;5.65;;
9860;SDS011;4969;52.304;4.968;2022-08-05T10:28:48;19.77;;;16.55;;
9860;SDS011;4969;52.304;4.968;2022-08-05T10:31:15;19.45;;;17.45;;
9860;SDS011;4969;52.304;4.968;2022-08-05T10:33:42;17.80;;;15.80;;
9860;SDS011;4969;52.304;4.968;2022-08-05T10:36:09;14.18;;;11.52;;
9860;SDS011;4969;52.304;4.968;2022-08-05T10:38:35;9.95;;;7.07;;
9860;SDS011;4969;52.304;4.968;2022-08-05T10:41:07;9.55;;;8.65;;
9860;SDS011;4969;52.304;4.968;2022-08-05T10:43:44;2.35;;;0.93;;
9860;SDS011;4969;52.304;4.968;2022-08-05T10:46:16;4.03;;;3.08;;
9860;SDS011;4969;52.304;4.968;2022-08-05T10:48:46;4.57;;;4.07;;
9860;SDS011;4969;52.304;4.968;2022-08-05T10:51:14;4.57;;;3.80;;
9860;SDS011;4969;52.304;4.968;2022-08-05T10:53:42;3.95;;;2.70;;
9860;SDS011;4969;52.304;4.968;2022-08-05T10:56:11;3.03;;;1.50;;
9860;SDS011;4969;52.304;4.968;2022-08-05T10:59:01;49.65;;;23.63;;
9860;SDS011;4969;52.304;4.968;2022-08-05T11:01:31;47.38;;;21.65;;
9860;SDS011;4969;52.304;4.968;2022-08-05T11:04:00;45.58;;;20.88;;
9860;SDS011;4969;52.304;4.968;2022-08-05T11:06:28;26.98;;;13.70;;
9860;SDS011;4969;52.304;4.968;2022-08-05T11:09:12;37.00;;;15.20;;
9860;SDS011;4969;52.304;4.968;2022-08-05T11:11:42;24.58;;;11.18;;
9860;SDS011;4969;52.304;4.968;2022-08-05T11:14:12;22.38;;;11.10;;
9860;SDS011;4969;52.304;4.968;2022-08-05T11:16:39;5.88;;;3.05;;
9860;SDS011;4969;52.304;4.968;2022-08-05T11:19:24;15.43;;;7.07;;
9860;SDS011;4969;52.304;4.968;2022-08-05T11:21:52;17.48;;;7.38;;
9860;SDS011;4969;52.304;4.968;2022-08-05T11:24:18;2.28;;;1.00;;
9860;SDS011;4969;52.304;4.968;2022-08-05T11:26:47;14.65;;;8.93;;
9860;SDS011;4969;52.304;4.968;2022-08-05T11:29:35;7.68;;;4.63;;
9860;SDS011;4969;52.304;4.968;2022-08-05T11:32:22;2.15;;;1.20;;
9860;SDS011;4969;52.304;4.968;2022-08-05T11:34:50;3.17;;;1.88;;
9860;SDS011;4969;52.304;4.968;2022-08-05T11:37:39;4.07;;;1.70;;
9860;SDS011;4969;52.304;4.968;2022-08-05T11:43:24;7.22;;;4.85;;
9860;SDS011;4969;52.304;4.968;2022-08-05T11:45:55;14.25;;;11.73;;
9860;SDS011;4969;52.304;4.968;2022-08-05T11:48:21;13.77;;;11.75;;
9860;SDS011;4969;52.304;4.968;2022-08-05T11:50:49;5.75;;;4.25;;
9860;SDS011;4969;52.304;4.968;2022-08-05T11:53:17;1.42;;;1.27;;
9860;SDS011;4969;52.304;4.968;2022-08-05T11:55:53;10.93;;;9.07;;
9860;SDS011;4969;52.304;4.968;2022-08-05T11:58:26;4.00;;;2.88;;
9860;SDS011;4969;52.304;4.968;2022-08-05T12:01:01;6.63;;;5.63;;
9860;SDS011;4969;52.304;4.968;2022-08-05T12:03:28;4.20;;;1.40;;
9860;SDS011;4969;52.304;4.968;2022-08-05T12:06:01;5.95;;;4.63;;
9860;SDS011;4969;52.304;4.968;2022-08-05T12:08:29;5.30;;;4.80;;
9860;SDS011;4969;52.304;4.968;2022-08-05T12:10:56;5.15;;;4.65;;
9860;SDS011;4969;52.304;4.968;2022-08-05T12:13:24;7.72;;;6.63;;
9860;SDS011;4969;52.304;4.968;2022-08-05T12:15:51;20.38;;;17.77;;
9860;SDS011;4969;52.304;4.968;2022-08-05T12:18:19;12.65;;;10.75;;
9860;SDS011;4969;52.304;4.968;2022-08-05T12:20:53;20.15;;;16.35;;
9860;SDS011;4969;52.304;4.968;2022-08-05T12:23:20;6.22;;;5.63;;
9860;SDS011;4969;52.304;4.968;2022-08-05T12:25:50;3.70;;;3.17;;
9860;SDS011;4969;52.304;4.968;2022-08-05T12:28:30;5.65;;;5.13;;
9860;SDS011;4969;52.304;4.968;2022-08-05T12:30:57;11.75;;;8.93;;
9860;SDS011;4969;52.304;4.968;2022-08-05T12:33:26;6.20;;;5.57;;
9860;SDS011;4969;52.304;4.968;2022-08-05T12:35:53;6.15;;;5.53;;
9860;SDS011;4969;52.304;4.968;2022-08-05T12:38:20;2.35;;;1.35;;
9860;SDS011;4969;52.304;4.968;2022-08-05T12:40:47;5.25;;;4.82;;
9860;SDS011;4969;52.304;4.968;2022-08-05T12:43:14;3.83;;;2.88;;
9860;SDS011;4969;52.304;4.968;2022-08-05T12:45:49;6.38;;;5.78;;
9860;SDS011;4969;52.304;4.968;2022-08-05T12:48:16;3.63;;;3.25;;
9860;SDS011;4969;52.304;4.968;2022-08-05T12:50:44;4.32;;;3.92;;
9860;SDS011;4969;52.304;4.968;2022-08-05T12:53:39;5.95;;;3.65;;
9860;SDS011;4969;52.304;4.968;2022-08-05T12:56:17;6.68;;;5.95;;
9860;SDS011;4969;52.304;4.968;2022-08-05T13:01:40;25.60;;;22.13;;
9860;SDS011;4969;52.304;4.968;2022-08-05T13:04:09;9.45;;;7.78;;
9860;SDS011;4969;52.304;4.968;2022-08-05T13:06:39;6.20;;;5.13;;
9860;SDS011;4969;52.304;4.968;2022-08-05T13:09:07;7.18;;;6.05;;
9860;SDS011;4969;52.304;4.968;2022-08-05T13:11:36;3.17;;;2.80;;
9860;SDS011;4969;52.304;4.968;2022-08-05T13:14:09;2.28;;;0.63;;
9860;SDS011;4969;52.304;4.968;2022-08-05T13:16:46;3.53;;;2.92;;
9860;SDS011;4969;52.304;4.968;2022-08-05T13:19:14;2.15;;;0.60;;
9860;SDS011;4969;52.304;4.968;2022-08-05T13:21:43;1.35;;;1.25;;
9860;SDS011;4969;52.304;4.968;2022-08-05T13:24:11;4.60;;;3.90;;
9860;SDS011;4969;52.304;4.968;2022-08-05T13:26:37;1.45;;;0.70;;
9860;SDS011;4969;52.304;4.968;2022-08-05T13:29:04;1.45;;;1.35;;
9860;SDS011;4969;52.304;4.968;2022-08-05T13:31:30;2.70;;;1.13;;
9860;SDS011;4969;52.304;4.968;2022-08-05T13:33:57;0.73;;;0.50;;
9860;SDS011;4969;52.304;4.968;2022-08-05T13:36:23;3.95;;;2.05;;
9860;SDS011;4969;52.304;4.968;2022-08-05T13:38:51;2.63;;;0.88;;
9860;SDS011;4969;52.304;4.968;2022-08-05T13:41:18;4.00;;;2.53;;
9860;SDS011;4969;52.304;4.968;2022-08-05T13:43:44;1.17;;;0.70;;
9860;SDS011;4969;52.304;4.968;2022-08-05T13:46:11;5.88;;;3.40;;
9860;SDS011;4969;52.304;4.968;2022-08-05T13:48:38;0.70;;;0.70;;
9860;SDS011;4969;52.304;4.968;2022-08-05T13:51:05;2.47;;;1.02;;
9860;SDS011;4969;52.304;4.968;2022-08-05T13:53:32;2.28;;;1.60;;
9860;SDS011;4969;52.304;4.968;2022-08-05T13:56:00;3.63;;;1.40;;
9860;SDS011;4969;52.304;4.968;2022-08-05T13:58:27;8.90;;;2.75;;
9860;SDS011;4969;52.304;4.968;2022-08-05T14:00:53;11.07;;;2.75;;
9860;SDS011;4969;52.304;4.968;2022-08-05T14:03:20;3.17;;;1.15;;
9860;SDS011;4969;52.304;4.968;2022-08-05T14:05:47;3.20;;;1.90;;
9860;SDS011;4969;52.304;4.968;2022-08-05T14:08:12;1.80;;;1.45;;
9860;SDS011;4969;52.304;4.968;2022-08-05T14:10:39;2.55;;;1.50;;
9860;SDS011;4969;52.304;4.968;2022-08-05T14:13:07;2.65;;;1.35;;
9860;SDS011;4969;52.304;4.968;2022-08-05T14:15:34;2.22;;;1.55;;
9860;SDS011;4969;52.304;4.968;2022-08-05T14:18:01;1.92;;;1.08;;
9860;SDS011;4969;52.304;4.968;2022-08-05T14:20:28;4.32;;;3.65;;
9860;SDS011;4969;52.304;4.968;2022-08-05T14:22:55;4.28;;;2.75;;
9860;SDS011;4969;52.304;4.968;2022-08-05T14:25:22;3.17;;;1.75;;
9860;SDS011;4969;52.304;4.968;2022-08-05T14:27:48;4.43;;;2.33;;
9860;SDS011;4969;52.304;4.968;2022-08-05T14:30:17;6.22;;;5.60;;
9860;SDS011;4969;52.304;4.968;2022-08-05T14:32:44;2.95;;;1.90;;
9860;SDS011;4969;52.304;4.968;2022-08-05T14:35:11;3.53;;;2.05;;
9860;SDS011;4969;52.304;4.968;2022-08-05T14:37:37;3.75;;;2.65;;
9860;SDS011;4969;52.304;4.968;2022-08-05T14:40:04;4.55;;;3.90;;
9860;SDS011;4969;52.304;4.968;2022-08-05T14:42:31;12.10;;;2.78;;
9860;SDS011;4969;52.304;4.968;2022-08-05T14:44:58;1.85;;;1.33;;
9860;SDS011;4969;52.304;4.968;2022-08-05T14:47:26;5.43;;;3.78;;
9860;SDS011;4969;52.304;4.968;2022-08-05T14:49:52;1.45;;;1.35;;
9860;SDS011;4969;52.304;4.968;2022-08-05T14:52:19;2.30;;;1.65;;
9860;SDS011;4969;52.304;4.968;2022-08-05T14:54:46;4.45;;;1.95;;
9860;SDS011;4969;52.304;4.968;2022-08-05T14:57:12;6.45;;;4.93;;
9860;SDS011;4969;52.304;4.968;2022-08-05T14:59:39;3.47;;;2.00;;
9860;SDS011;4969;52.304;4.968;2022-08-05T15:02:05;3.70;;;1.90;;
9860;SDS011;4969;52.304;4.968;2022-08-05T15:04:33;4.25;;;2.20;;
9860;SDS011;4969;52.304;4.968;2022-08-05T15:07:00;3.30;;;1.45;;
9860;SDS011;4969;52.304;4.968;2022-08-05T15:09:26;2.97;;;2.67;;
9860;SDS011;4969;52.304;4.968;2022-08-05T15:11:53;2.65;;;1.75;;
9860;SDS011;4969;52.304;4.968;2022-08-05T15:14:21;3.05;;;1.60;;
9860;SDS011;4969;52.304;4.968;2022-08-05T15:16:47;3.90;;;1.90;;
9860;SDS011;4969;52.304;4.968;2022-08-05T15:19:14;2.35;;;1.85;;
9860;SDS011;4969;52.304;4.968;2022-08-05T15:21:42;2.20;;;1.05;;
9860;SDS011;4969;52.304;4.968;2022-08-05T15:24:08;3.22;;;1.55;;
9860;SDS011;4969;52.304;4.968;2022-08-05T15:26:35;1.30;;;0.90;;
9860;SDS011;4969;52.304;4.968;2022-08-05T15:29:01;2.22;;;1.50;;